Time;durP1;ratioP1;P1;durP2;ratioP2;P2;SDS_P1;SDS_P2;PMS_P1;PMS_P2;Temp;Humidity;BMP_temperature;BMP_pressure;BME280_temperature;BME280_humidity;BME280_pressure;Samples;Min_cycle;Max_cycle;Signal;HPM_P1;HPM_P2
2022/12/16 00:00:43;;;;;;;;;;;3.60;99.90;;;;;;5088686;28;20043;-77
2022/12/16 00:03:08;;;;;;;11.27;5.60;;;3.70;99.90;;;;;;5088289;28;19915;-77
2022/12/16 00:05:36;;;;;;;9.68;5.82;;;3.70;99.90;;;;;;5087491;28;20032;-76
2022/12/16 00:08:02;;;;;;;11.40;5.80;;;3.70;99.90;;;;;;5089255;28;20404;-77
2022/12/16 00:10:51;;;;;;;12.82;6.40;;;3.80;99.90;;;;;;5088929;28;20445;-76
2022/12/16 00:13:13;;;;;;;8.48;5.03;;;3.90;99.90;;;;;;5088775;28;20047;-77
2022/12/16 00:15:39;;;;;;;;;;;3.90;99.90;;;;;;5088910;28;20028;-77
2022/12/16 00:18:04;;;;;;;12.60;7.30;;;4.00;99.90;;;;;;5089304;28;19908;-77
2022/12/16 00:20:30;;;;;;;;;;;3.90;99.90;;;;;;5088081;28;20052;-77
2022/12/16 00:22:56;;;;;;;15.70;7.80;;;3.90;99.90;;;;;;5088726;28;19919;-77
2022/12/16 00:25:21;;;;;;;;;;;3.80;99.90;;;;;;5089988;28;20400;-77
2022/12/16 00:27:47;;;;;;;10.98;5.80;;;3.90;99.90;;;;;;5087056;28;19908;-77
2022/12/16 00:30:12;;;;;;;;;;;3.90;99.90;;;;;;5089168;28;20459;-77
2022/12/16 00:32:38;;;;;;;11.13;6.55;;;4.00;99.90;;;;;;5088157;28;20442;-77
2022/12/16 00:35:04;;;;;;;;;;;4.00;99.90;;;;;;5089878;28;20032;-77
2022/12/16 00:37:29;;;;;;;10.75;6.00;;;3.90;99.90;;;;;;5087763;28;19926;-78
2022/12/16 00:39:55;;;;;;;;;;;3.90;99.90;;;;;;5090287;28;20024;-77
2022/12/16 00:42:20;;;;;;;13.30;8.20;;;3.90;99.90;;;;;;5087678;28;20350;-77
2022/12/16 00:44:46;;;;;;;;;;;3.90;99.90;;;;;;5087886;28;20054;-77
2022/12/16 00:47:12;;;;;;;9.30;5.65;;;3.90;99.90;;;;;;5089269;28;20020;-77
2022/12/16 00:49:37;;;;;;;11.07;6.30;;;3.90;99.90;;;;;;5087528;28;20143;-77
2022/12/16 00:52:03;;;;;;;;;;;3.90;99.90;;;;;;5089691;28;20608;-77
2022/12/16 00:54:28;;;;;;;7.93;4.13;;;3.90;99.90;;;;;;5087836;28;19904;-78
2022/12/16 00:56:55;;;;;;;;;;;4.00;99.90;;;;;;5089266;28;20058;-77
2022/12/16 00:59:20;;;;;;;11.23;7.50;;;4.00;99.90;;;;;;5087765;28;19912;-77
2022/12/16 01:01:46;;;;;;;;;;;4.00;99.90;;;;;;5088692;28;20032;-78
2022/12/16 01:04:11;;;;;;;11.13;7.00;;;4.00;99.90;;;;;;5089379;28;19938;-77
2022/12/16 01:06:37;;;;;;;;;;;4.00;99.90;;;;;;5088834;28;20502;-77
2022/12/16 01:09:03;;;;;;;8.63;5.22;;;4.00;99.90;;;;;;5089067;28;19923;-77
2022/12/16 01:11:28;;;;;;;;;;;4.10;99.90;;;;;;5089163;28;20119;-77
2022/12/16 01:13:54;;;;;;;8.82;5.47;;;4.10;99.90;;;;;;5089030;28;19912;-77
2022/12/16 01:16:19;;;;;;;;;;;4.20;99.90;;;;;;5088829;28;20115;-77
2022/12/16 01:18:45;;;;;;;10.10;6.05;;;4.30;99.90;;;;;;5088354;28;19954;-77
2022/12/16 01:21:12;;;;;;;;;;;4.30;99.90;;;;;;5090173;28;20261;-77
2022/12/16 01:23:38;;;;;;;8.68;3.67;;;4.30;99.90;;;;;;5089700;28;19908;-77
2022/12/16 01:26:04;;;;;;;;;;;4.40;99.90;;;;;;5090330;28;20080;-77
2022/12/16 01:28:30;;;;;;;8.68;4.40;;;4.40;99.90;;;;;;5089842;28;19915;-77
2022/12/16 01:31:00;;;;;;;;;;;4.40;99.90;;;;;;5089013;28;20032;-78
2022/12/16 01:33:27;;;;;;;3.95;2.50;;;4.50;99.90;;;;;;5088416;28;20265;-77
2022/12/16 01:36:00;;;;;;;5.07;2.60;;;4.60;99.90;;;;;;5090095;28;20028;-77
2022/12/16 01:38:26;;;;;;;5.10;2.60;;;4.60;99.90;;;;;;5089942;28;20044;-78
2022/12/16 01:40:51;;;;;;;;;;;4.70;99.90;;;;;;5089691;28;20397;-77
2022/12/16 01:43:20;;;;;;;1.60;0.80;;;4.80;99.90;;;;;;5090365;28;19951;-77
2022/12/16 01:45:46;;;;;;;3.00;1.20;;;4.80;99.90;;;;;;5091067;28;20024;-77
2022/12/16 01:48:30;;;;;;;;;;;4.80;99.90;;;;;;5091994;28;20031;-78
2022/12/16 01:51:01;;;;;;;3.10;0.65;;;4.80;99.90;;;;;;5086196;28;19956;-77
2022/12/16 01:53:27;;;;;;;1.48;0.70;;;5.00;99.90;;;;;;5086486;28;20508;-77
2022/12/16 01:55:54;;;;;;;;;;;5.00;99.90;;;;;;5085919;28;20027;-77
2022/12/16 01:58:28;;;;;;;1.08;0.57;;;5.10;99.90;;;;;;5086839;28;19912;-78
2022/12/16 02:00:54;;;;;;;1.65;0.82;;;5.10;99.90;;;;;;5086169;28;20310;-77
2022/12/16 02:03:21;;;;;;;;;;;5.00;99.90;;;;;;5085905;28;20056;-77
2022/12/16 02:05:48;;;;;;;1.80;0.60;;;5.00;99.90;;;;;;5086606;28;19915;-77
2022/12/16 02:08:18;;;;;;;1.05;0.60;;;5.10;99.90;;;;;;5087213;28;20062;-78
2022/12/16 02:10:55;;;;;;;1.42;0.80;;;5.10;99.90;;;;;;5086971;28;20028;-78
2022/12/16 02:13:44;;;;;;;;;;;5.20;99.90;;;;;;5085959;28;20040;-77
2022/12/16 02:16:29;;;;;;;1.98;0.70;;;5.10;99.90;;;;;;5047574;28;19915;-76
2022/12/16 02:19:11;;;;;;;1.42;0.60;;;5.20;99.90;;;;;;5102498;28;20505;-77
2022/12/16 02:21:55;;;;;;;2.25;0.70;;;5.10;99.90;;;;;;5087113;28;20028;-77
2022/12/16 02:24:36;;;;;;;1.67;0.90;;;5.10;99.90;;;;;;5086436;28;20024;-78
2022/12/16 02:27:29;;;;;;;1.92;0.88;;;5.10;99.90;;;;;;5086999;28;20633;-76
2022/12/16 02:30:05;;;;;;;2.03;0.77;;;5.20;99.90;;;;;;5091202;28;20051;-77
2022/12/16 02:32:34;;;;;;;3.20;0.77;;;5.20;99.90;;;;;;5091430;28;20079;-76
2022/12/16 02:35:19;;;;;;;2.22;1.25;;;5.20;99.90;;;;;;5104786;28;20074;-75
2022/12/16 02:38:03;;;;;;;3.70;1.52;;;5.20;99.90;;;;;;5107826;28;20440;-76
2022/12/16 02:40:36;;;;;;;2.85;1.30;;;5.10;99.90;;;;;;5105148;28;20438;-75
2022/12/16 02:43:32;;;;;;;3.08;1.63;;;5.20;99.90;;;;;;5088920;28;20028;-76
2022/12/16 02:45:59;;;;;;;3.60;1.48;;;5.20;99.90;;;;;;5106683;28;20055;-76
2022/12/16 02:48:24;;;;;;;3.15;1.58;;;5.20;99.90;;;;;;5088966;28;20035;-76
2022/12/16 02:50:51;;;;;;;;;;;5.30;99.90;;;;;;5090328;28;20103;-74
2022/12/16 02:53:19;;;;;;;4.30;1.77;;;5.20;99.90;;;;;;5088303;28;20382;-76
2022/12/16 02:56:10;;;;;;;7.03;2.05;;;5.10;99.90;;;;;;5089652;28;20024;-77
2022/12/16 02:59:23;;;;;;;4.55;2.20;;;5.00;99.90;;;;;;5089531;28;20050;-76
2022/12/16 03:01:56;;;;;;;3.13;1.90;;;5.10;99.90;;;;;;5066477;28;20527;-77
2022/12/16 03:04:41;;;;;;;5.85;2.38;;;5.10;99.90;;;;;;5067300;28;20036;-76
2022/12/16 03:07:12;;;;;;;5.75;2.83;;;5.00;99.90;;;;;;5090904;28;20036;-77
2022/12/16 03:09:39;;;;;;;6.45;3.25;;;5.00;99.90;;;;;;5087843;28;20020;-77
2022/12/16 03:12:11;;;;;;;4.65;2.95;;;5.00;99.90;;;;;;5088230;28;20059;-77
2022/12/16 03:14:40;;;;;;;4.70;3.03;;;5.10;99.90;;;;;;5090035;28;20028;-77
2022/12/16 03:17:07;;;;;;;5.95;3.25;;;5.00;99.90;;;;;;5088282;28;20028;-76
2022/12/16 03:19:34;;;;;;;5.80;3.72;;;5.10;99.90;;;;;;5089402;28;20117;-76
2022/12/16 03:22:05;;;;;;;5.53;2.97;;;5.20;99.90;;;;;;5088894;28;20034;-76
2022/12/16 03:24:32;;;;;;;4.95;2.67;;;5.20;99.90;;;;;;5088869;28;20069;-76
2022/12/16 03:27:12;;;;;;;4.93;3.05;;;5.20;99.90;;;;;;5089439;28;20042;-76
2022/12/16 03:29:44;;;;;;;8.27;3.53;;;5.20;99.90;;;;;;5105435;28;20032;-76
2022/12/16 03:32:14;;;;;;;5.50;3.42;;;5.20;99.90;;;;;;5105596;28;20039;-77
2022/12/16 03:34:51;;;;;;;5.10;3.40;;;5.20;99.90;;;;;;5088779;28;20032;-76
2022/12/16 03:37:21;;;;;;;6.32;3.85;;;5.20;99.90;;;;;;5090074;28;20030;-76
2022/12/16 03:39:50;;;;;;;8.38;3.85;;;5.30;99.90;;;;;;5088968;28;20490;-76
2022/12/16 03:42:17;;;;;;;5.90;3.55;;;5.30;99.90;;;;;;5089218;28;20087;-76
2022/12/16 03:44:44;;;;;;;6.47;3.45;;;5.40;99.90;;;;;;5088926;28;20036;-77
2022/12/16 03:47:11;;;;;;;6.95;4.10;;;5.50;99.90;;;;;;5090617;28;20511;-76
2022/12/16 03:49:37;;;;;;;6.63;3.88;;;5.50;99.90;;;;;;5088815;28;20023;-76
2022/12/16 03:52:03;;;;;;;5.38;3.08;;;5.50;99.90;;;;;;5090729;28;20054;-76
2022/12/16 03:54:29;;;;;;;;;;;5.50;99.90;;;;;;5090080;28;20245;-76
2022/12/16 03:56:55;;;;;;;6.68;4.35;;;5.60;99.90;;;;;;5088916;28;19915;-76
2022/12/16 03:59:21;;;;;;;;;;;5.60;99.90;;;;;;5090234;28;20508;-76
2022/12/16 04:01:46;;;;;;;7.10;4.35;;;5.50;99.90;;;;;;5072700;28;20284;-75
2022/12/16 04:04:12;;;;;;;;;;;5.50;99.90;;;;;;5091915;28;20066;-76
2022/12/16 04:06:38;;;;;;;5.43;2.92;;;5.50;99.90;;;;;;5089652;28;20353;-76
2022/12/16 04:09:03;;;;;;;;;;;5.50;99.90;;;;;;5091342;28;20392;-77
2022/12/16 04:25:29;;;;;;;5.63;3.67;;;5.60;99.90;;;;;;5087166;28;20031;-78
2022/12/16 04:27:57;;;;;;;6.03;3.88;;;5.50;99.90;;;;;;5086614;28;20091;-78
2022/12/16 04:30:23;;;;;;;6.05;3.42;;;5.60;99.90;;;;;;5088400;28;20032;-78
